createdAt,value
2016-11-16T00:00:02.815Z,74215
2016-11-16T00:00:11.490Z,74218
2016-11-16T00:00:20.200Z,74218
2016-11-16T00:00:28.941Z,74217
2016-11-16T00:00:37.665Z,74217
2016-11-16T00:00:46.368Z,74216
2016-11-16T00:00:55.093Z,74213
2016-11-16T00:01:03.801Z,74217
2016-11-16T00:01:12.502Z,74217
2016-11-16T00:01:21.243Z,74216
2016-11-16T00:01:30.006Z,74215
2016-11-16T00:01:38.750Z,74213
2016-11-16T00:01:47.500Z,74216
2016-11-16T00:01:56.213Z,74217
2016-11-16T00:02:04.934Z,74218
2016-11-16T00:02:13.653Z,74214
2016-11-16T00:02:22.368Z,74215
2016-11-16T00:02:31.062Z,74215
2016-11-16T00:02:39.797Z,74215
2016-11-16T00:02:48.521Z,74215
2016-11-16T00:02:57.254Z,74216
2016-11-16T00:03:05.950Z,74215
2016-11-16T00:03:14.607Z,74216
2016-11-16T00:03:23.335Z,74214
2016-11-16T00:03:32.030Z,74215
2016-11-16T00:03:40.998Z,74211
2016-11-16T00:03:49.726Z,74217
2016-11-16T00:03:58.457Z,74214
2016-11-16T00:04:07.181Z,74215
2016-11-16T00:04:15.936Z,74216
2016-11-16T00:04:24.689Z,74218
2016-11-16T00:04:33.408Z,74218
2016-11-16T00:04:42.123Z,74219
2016-11-16T00:04:50.807Z,74217
2016-11-16T00:04:59.530Z,74217
2016-11-16T00:05:08.239Z,74217
2016-11-16T00:05:16.915Z,74220
2016-11-16T00:05:25.650Z,74220
2016-11-16T00:05:34.344Z,74218
2016-11-16T00:05:43.018Z,74218
2016-11-16T00:05:51.749Z,74217
2016-11-16T00:06:00.438Z,74216
2016-11-16T00:06:09.153Z,74215
2016-11-16T00:06:17.818Z,74215
2016-11-16T00:06:26.529Z,74212
2016-11-16T00:06:35.259Z,74215
2016-11-16T00:06:43.950Z,74211
2016-11-16T00:06:52.661Z,74212
2016-11-16T00:07:01.391Z,74209
2016-11-16T00:07:10.105Z,74214
2016-11-16T00:07:18.770Z,74209
2016-11-16T00:07:27.473Z,74211
2016-11-16T00:07:36.504Z,74211
2016-11-16T00:07:45.230Z,74213
2016-11-16T00:07:53.949Z,74215
2016-11-16T00:08:02.664Z,74210
2016-11-16T00:08:11.376Z,74213
2016-11-16T00:08:20.095Z,74212
2016-11-16T00:08:28.820Z,74215
2016-11-16T00:08:37.504Z,74212
2016-11-16T00:08:46.213Z,74210
2016-11-16T00:08:54.926Z,74212
2016-11-16T00:09:03.619Z,74214
2016-11-16T00:09:12.363Z,74218
2016-11-16T00:09:21.078Z,74214
2016-11-16T00:09:29.798Z,74217
2016-11-16T00:09:38.521Z,74217
2016-11-16T00:09:47.250Z,74213
2016-11-16T00:09:55.984Z,74214
2016-11-16T00:10:04.713Z,74209
2016-11-16T00:10:13.720Z,74209
2016-11-16T00:10:22.415Z,74208
2016-11-16T00:10:31.127Z,74212
2016-11-16T00:10:39.865Z,74213
2016-11-16T00:10:48.541Z,74210
2016-11-16T00:10:57.198Z,74211
2016-11-16T00:11:05.906Z,74215
2016-11-16T00:11:14.694Z,74211
2016-11-16T00:11:23.416Z,74210
2016-11-16T00:11:32.113Z,74207
2016-11-16T00:11:40.820Z,74210
2016-11-16T00:11:49.512Z,74210
2016-11-16T00:11:58.249Z,74213
2016-11-16T00:12:06.992Z,74210
2016-11-16T00:12:15.705Z,74210
2016-11-16T00:12:24.394Z,74210
2016-11-16T00:12:33.102Z,74211
2016-11-16T00:12:41.819Z,74209
2016-11-16T00:12:50.572Z,74218
2016-11-16T00:12:59.259Z,74213
2016-11-16T00:13:07.967Z,74210
2016-11-16T00:13:16.679Z,74205
2016-11-16T00:13:25.391Z,74210
2016-11-16T00:13:34.063Z,74209
2016-11-16T00:13:42.778Z,74215
2016-11-16T00:13:51.460Z,74213
2016-11-16T00:14:00.152Z,74215
2016-11-16T00:14:08.815Z,74215
2016-11-16T00:14:17.536Z,74213
2016-11-16T00:14:26.270Z,74211
2016-11-16T00:14:34.993Z,74209
2016-11-16T00:14:43.693Z,74214
2016-11-16T00:14:52.405Z,74212
2016-11-16T00:15:01.449Z,74216
2016-11-16T00:15:10.156Z,74216
2016-11-16T00:15:18.898Z,74213
2016-11-16T00:15:27.596Z,74218
2016-11-16T00:15:36.295Z,74211
2016-11-16T00:15:44.967Z,74210
2016-11-16T00:15:53.718Z,74210
2016-11-16T00:16:02.431Z,74209
2016-11-16T00:16:11.141Z,74209
2016-11-16T00:16:19.867Z,74207
2016-11-16T00:16:28.625Z,74208
2016-11-16T00:16:37.334Z,74205
2016-11-16T00:16:46.071Z,74209
2016-11-16T00:16:54.798Z,74206
2016-11-16T00:17:03.537Z,74210
2016-11-16T00:17:12.249Z,74208
2016-11-16T00:17:21.019Z,74207
2016-11-16T00:17:29.764Z,74208
2016-11-16T00:17:38.453Z,74207
2016-11-16T00:17:47.189Z,74208
2016-11-16T00:17:55.897Z,74207
2016-11-16T00:18:04.647Z,74208
2016-11-16T00:18:13.375Z,74208
2016-11-16T00:18:22.070Z,74209
2016-11-16T00:18:30.777Z,74211
2016-11-16T00:18:39.530Z,74206
2016-11-16T00:18:48.256Z,74207
2016-11-16T00:18:56.926Z,74207
2016-11-16T00:19:05.621Z,74209
2016-11-16T00:19:14.331Z,74208
2016-11-16T00:19:23.024Z,74206
2016-11-16T00:19:31.749Z,74206
2016-11-16T00:19:40.464Z,74208
2016-11-16T00:19:49.227Z,74207
2016-11-16T00:19:57.966Z,74205
2016-11-16T00:20:06.719Z,74206
2016-11-16T00:20:15.429Z,74204
2016-11-16T00:20:24.167Z,74205
2016-11-16T00:20:32.897Z,74207
2016-11-16T00:20:41.629Z,74207
2016-11-16T00:20:50.323Z,74205
2016-11-16T00:20:59.060Z,74208
2016-11-16T00:21:07.759Z,74208
2016-11-16T00:21:16.468Z,74209
2016-11-16T00:21:25.189Z,74208
2016-11-16T00:21:33.934Z,74209
2016-11-16T00:21:42.664Z,74211
2016-11-16T00:21:51.345Z,74210
2016-11-16T00:22:00.067Z,74206
2016-11-16T00:22:08.826Z,74208
2016-11-16T00:22:17.570Z,74206
2016-11-16T00:22:26.308Z,74206
2016-11-16T00:22:35.035Z,74207
2016-11-16T00:22:43.747Z,74205
2016-11-16T00:22:52.477Z,74203
2016-11-16T00:23:01.208Z,74205
2016-11-16T00:23:09.950Z,74205
2016-11-16T00:23:18.674Z,74203
2016-11-16T00:23:27.390Z,74206
2016-11-16T00:23:36.135Z,74203
2016-11-16T00:23:44.829Z,74202
2016-11-16T00:23:53.580Z,74202
2016-11-16T00:24:02.335Z,74201
2016-11-16T00:24:11.058Z,74202
2016-11-16T00:24:19.759Z,74198
2016-11-16T00:24:28.526Z,74202
2016-11-16T00:24:37.579Z,74202
2016-11-16T00:24:46.308Z,74201
2016-11-16T00:24:55.040Z,74199
2016-11-16T00:25:03.780Z,74201
2016-11-16T00:25:12.538Z,74202
2016-11-16T00:25:21.204Z,74200
2016-11-16T00:25:29.937Z,74199
2016-11-16T00:25:38.665Z,74199
2016-11-16T00:25:47.358Z,74201
2016-11-16T00:25:56.097Z,74200
2016-11-16T00:26:04.854Z,74204
2016-11-16T00:26:13.542Z,74200
2016-11-16T00:26:22.286Z,74205
2016-11-16T00:26:30.987Z,74205
2016-11-16T00:26:39.695Z,74202
2016-11-16T00:26:48.399Z,74204
2016-11-16T00:26:57.126Z,74205
2016-11-16T00:27:05.873Z,74203
2016-11-16T00:27:14.587Z,74203
2016-11-16T00:27:23.274Z,74206
2016-11-16T00:27:31.976Z,74200
2016-11-16T00:27:40.680Z,74203
2016-11-16T00:27:49.422Z,74200
2016-11-16T00:27:58.153Z,74202
2016-11-16T00:28:06.915Z,74202
2016-11-16T00:28:15.636Z,74200
2016-11-16T00:28:24.362Z,74204
2016-11-16T00:28:33.118Z,74202
2016-11-16T00:28:41.831Z,74203
2016-11-16T00:28:50.533Z,74201
2016-11-16T00:28:59.263Z,74203
2016-11-16T00:29:07.941Z,74203
2016-11-16T00:29:16.682Z,74202
2016-11-16T00:29:25.368Z,74200
2016-11-16T00:29:34.126Z,74206
2016-11-16T00:29:43.124Z,74204
2016-11-16T00:29:51.855Z,74205
2016-11-16T00:30:00.558Z,74206
2016-11-16T00:30:09.273Z,74204
2016-11-16T00:30:17.978Z,74206
2016-11-16T00:30:26.707Z,74202
2016-11-16T00:30:35.383Z,74202
2016-11-16T00:30:44.086Z,74206
2016-11-16T00:30:52.800Z,74202
2016-11-16T00:31:01.542Z,74201
2016-11-16T00:31:10.223Z,74203
2016-11-16T00:31:18.908Z,74202
2016-11-16T00:31:27.630Z,74201
2016-11-16T00:31:36.344Z,74205
2016-11-16T00:31:45.038Z,74203
2016-11-16T00:31:53.806Z,74199
2016-11-16T00:32:02.527Z,74205
2016-11-16T00:32:11.214Z,74203
2016-11-16T00:32:19.932Z,74202
2016-11-16T00:32:28.650Z,74203
2016-11-16T00:32:37.376Z,74202
2016-11-16T00:32:46.076Z,74204
2016-11-16T00:32:54.759Z,74202
2016-11-16T00:33:03.751Z,74201
2016-11-16T00:33:12.486Z,74202
2016-11-16T00:33:21.191Z,74203
2016-11-16T00:33:29.897Z,74205
2016-11-16T00:33:38.602Z,74202
2016-11-16T00:33:47.306Z,74204
2016-11-16T00:33:56.043Z,74206
2016-11-16T00:34:04.795Z,74203
2016-11-16T00:34:13.523Z,74203
2016-11-16T00:34:22.243Z,74203
2016-11-16T00:34:30.982Z,74202
2016-11-16T00:34:39.660Z,74201
2016-11-16T00:34:48.386Z,74202
2016-11-16T00:34:57.126Z,74204
2016-11-16T00:35:05.794Z,74201
2016-11-16T00:35:14.514Z,74201
2016-11-16T00:35:23.248Z,74201
2016-11-16T00:35:31.952Z,74200
2016-11-16T00:35:40.688Z,74204
2016-11-16T00:35:49.407Z,74199
2016-11-16T00:35:58.104Z,74197
2016-11-16T00:36:06.796Z,74199
2016-11-16T00:36:15.516Z,74203
2016-11-16T00:36:24.243Z,74204
2016-11-16T00:36:32.988Z,74201
2016-11-16T00:36:41.689Z,74204
2016-11-16T00:36:50.396Z,74202
2016-11-16T00:36:59.094Z,74203
2016-11-16T00:37:07.871Z,74204
2016-11-16T00:37:16.593Z,74205
2016-11-16T00:37:25.296Z,74202
2016-11-16T00:37:34.038Z,74204
2016-11-16T00:37:42.761Z,74203
2016-11-16T00:37:51.474Z,74204
2016-11-16T00:38:00.177Z,74202
2016-11-16T00:38:08.914Z,74205
2016-11-16T00:38:17.900Z,74201
2016-11-16T00:38:26.643Z,74201
2016-11-16T00:38:35.333Z,74202
2016-11-16T00:38:44.023Z,74203
2016-11-16T00:38:52.727Z,74203
2016-11-16T00:39:01.474Z,74199
2016-11-16T00:39:10.189Z,74202
2016-11-16T00:39:18.881Z,74202
2016-11-16T00:39:27.629Z,74201
2016-11-16T00:39:36.309Z,74203
2016-11-16T00:39:44.986Z,74200
2016-11-16T00:39:53.704Z,74203
2016-11-16T00:40:02.425Z,74205
2016-11-16T00:40:11.140Z,74205
2016-11-16T00:40:19.826Z,74203
2016-11-16T00:40:28.495Z,74205
2016-11-16T00:40:37.199Z,74205
2016-11-16T00:40:45.897Z,74204
2016-11-16T00:40:54.575Z,74205
2016-11-16T00:41:03.269Z,74206
2016-11-16T00:41:12.010Z,74203
2016-11-16T00:41:20.725Z,74208
2016-11-16T00:41:29.694Z,74205
2016-11-16T00:41:38.414Z,74203
2016-11-16T00:41:47.144Z,74201
2016-11-16T00:41:55.844Z,74205
2016-11-16T00:42:04.544Z,74202
2016-11-16T00:42:13.287Z,74202
2016-11-16T00:42:22.003Z,74201
2016-11-16T00:42:30.702Z,74198
2016-11-16T00:42:39.446Z,74201
2016-11-16T00:42:48.189Z,74198
2016-11-16T00:42:56.905Z,74199
2016-11-16T00:43:05.619Z,74198
2016-11-16T00:43:14.314Z,74199
2016-11-16T00:43:23.013Z,74197
2016-11-16T00:43:31.768Z,74198
2016-11-16T00:43:40.491Z,74194
2016-11-16T00:43:49.229Z,74196
2016-11-16T00:43:57.952Z,74193
2016-11-16T00:44:06.934Z,74194
2016-11-16T00:44:15.589Z,74191
2016-11-16T00:44:24.274Z,74195
2016-11-16T00:44:33.034Z,74192
2016-11-16T00:44:41.733Z,74192
2016-11-16T00:44:50.481Z,74196
2016-11-16T00:44:59.180Z,74197
2016-11-16T00:45:07.892Z,74195
2016-11-16T00:45:16.572Z,74194
2016-11-16T00:45:25.263Z,74192
2016-11-16T00:45:33.959Z,74196
2016-11-16T00:45:42.646Z,74195
2016-11-16T00:45:51.337Z,74196
2016-11-16T00:46:00.037Z,74196
2016-11-16T00:46:08.745Z,74195
2016-11-16T00:46:17.469Z,74195
2016-11-16T00:46:26.174Z,74196
2016-11-16T00:46:34.866Z,74198
2016-11-16T00:46:43.545Z,74196
2016-11-16T00:46:52.272Z,74195
2016-11-16T00:47:01.017Z,74198
2016-11-16T00:47:09.703Z,74196
2016-11-16T00:47:18.429Z,74193
2016-11-16T00:47:27.118Z,74197
2016-11-16T00:47:35.884Z,74194
2016-11-16T00:47:44.629Z,74194
2016-11-16T00:47:53.345Z,74192
2016-11-16T00:48:02.088Z,74197
2016-11-16T00:48:10.798Z,74192
2016-11-16T00:48:19.497Z,74192
2016-11-16T00:48:28.225Z,74196
2016-11-16T00:48:36.921Z,74196
2016-11-16T00:48:45.641Z,74194
2016-11-16T00:48:54.377Z,74193
2016-11-16T00:49:03.100Z,74196
2016-11-16T00:49:11.827Z,74197
2016-11-16T00:49:20.575Z,74194
2016-11-16T00:49:29.295Z,74195
2016-11-16T00:49:38.001Z,74195
2016-11-16T00:49:46.679Z,74195
2016-11-16T00:49:55.379Z,74194
2016-11-16T00:50:04.135Z,74197
2016-11-16T00:50:12.838Z,74199
2016-11-16T00:50:21.543Z,74197
2016-11-16T00:50:30.260Z,74197
2016-11-16T00:50:38.914Z,74197
2016-11-16T00:50:47.617Z,74194
2016-11-16T00:50:56.396Z,74197
2016-11-16T00:51:05.098Z,74199
2016-11-16T00:51:13.844Z,74199
2016-11-16T00:51:22.547Z,74197
2016-11-16T00:51:31.257Z,74198
2016-11-16T00:51:40.001Z,74198
2016-11-16T00:51:48.722Z,74199
2016-11-16T00:51:57.458Z,74196
2016-11-16T00:52:06.118Z,74199
2016-11-16T00:52:14.851Z,74201
2016-11-16T00:52:23.566Z,74199
2016-11-16T00:52:32.264Z,74199
2016-11-16T00:52:40.969Z,74197
2016-11-16T00:52:49.656Z,74198
2016-11-16T00:52:58.392Z,74196
2016-11-16T00:53:07.138Z,74197
2016-11-16T00:53:15.830Z,74196
2016-11-16T00:53:24.572Z,74196
2016-11-16T00:53:33.248Z,74196
2016-11-16T00:53:41.972Z,74200
2016-11-16T00:53:50.698Z,74195
2016-11-16T00:53:59.418Z,74193
2016-11-16T00:54:08.138Z,74196
2016-11-16T00:54:16.850Z,74198
2016-11-16T00:54:25.556Z,74197
2016-11-16T00:54:34.276Z,74201
2016-11-16T00:54:42.955Z,74197
2016-11-16T00:54:51.663Z,74197
2016-11-16T00:55:00.398Z,74200
2016-11-16T00:55:09.149Z,74194
2016-11-16T00:55:17.891Z,74196
2016-11-16T00:55:26.616Z,74198
2016-11-16T00:55:35.360Z,74200
2016-11-16T00:55:44.341Z,74198
2016-11-16T00:55:53.046Z,74198
2016-11-16T00:56:01.741Z,74200
2016-11-16T00:56:10.454Z,74199
2016-11-16T00:56:19.173Z,74199
2016-11-16T00:56:27.905Z,74198
2016-11-16T00:56:36.607Z,74198
2016-11-16T00:56:45.354Z,74195
2016-11-16T00:56:54.053Z,74197
2016-11-16T00:57:02.735Z,74199
2016-11-16T00:57:11.451Z,74199
2016-11-16T00:57:20.154Z,74198
2016-11-16T00:57:28.955Z,74197
2016-11-16T00:57:37.668Z,74195
2016-11-16T00:57:46.355Z,74196
2016-11-16T00:57:55.068Z,74195
2016-11-16T00:58:03.755Z,74194
2016-11-16T00:58:12.454Z,74196
2016-11-16T00:58:21.137Z,74195
2016-11-16T00:58:29.860Z,74196
2016-11-16T00:58:38.581Z,74193
2016-11-16T00:58:47.291Z,74196
2016-11-16T00:58:56.009Z,74195
2016-11-16T00:59:04.737Z,74191
2016-11-16T00:59:13.523Z,74196
2016-11-16T00:59:22.233Z,74197
2016-11-16T00:59:30.968Z,74196
2016-11-16T00:59:39.710Z,74197
2016-11-16T00:59:48.447Z,74196
2016-11-16T00:59:57.173Z,74195
2016-11-16T01:00:05.917Z,74195
2016-11-16T01:00:14.591Z,74195
2016-11-16T01:00:23.323Z,74195
2016-11-16T01:00:31.996Z,74194
2016-11-16T01:00:40.744Z,74192
2016-11-16T01:00:49.465Z,74194
2016-11-16T01:00:58.170Z,74193
2016-11-16T01:01:07.205Z,74195
2016-11-16T01:01:15.932Z,74192
2016-11-16T01:01:24.635Z,74194
2016-11-16T01:01:33.367Z,74191
2016-11-16T01:01:42.447Z,74190
2016-11-16T01:01:51.168Z,74190
2016-11-16T01:01:59.885Z,74193
2016-11-16T01:02:08.577Z,74193
2016-11-16T01:02:17.276Z,74191
2016-11-16T01:02:25.976Z,74190
2016-11-16T01:02:34.687Z,74191
2016-11-16T01:02:43.692Z,74193
2016-11-16T01:02:52.437Z,74192
2016-11-16T01:03:01.176Z,74190
2016-11-16T01:03:09.906Z,74189
2016-11-16T01:03:18.605Z,74193
2016-11-16T01:03:27.318Z,74195
2016-11-16T01:03:36.016Z,74192
2016-11-16T01:03:44.745Z,74191
2016-11-16T01:03:53.471Z,74191
2016-11-16T01:04:02.176Z,74192
2016-11-16T01:04:10.895Z,74192
2016-11-16T01:04:19.592Z,74192
2016-11-16T01:04:28.351Z,74189
2016-11-16T01:04:37.032Z,74188
2016-11-16T01:04:45.766Z,74189
2016-11-16T01:04:54.491Z,74190
2016-11-16T01:05:03.218Z,74191
2016-11-16T01:05:11.918Z,74190
2016-11-16T01:05:20.610Z,74190
2016-11-16T01:05:29.331Z,74192
2016-11-16T01:05:38.103Z,74190
2016-11-16T01:05:46.830Z,74190
2016-11-16T01:05:55.588Z,74192
2016-11-16T01:06:04.299Z,74193
2016-11-16T01:06:12.999Z,74189
2016-11-16T01:06:21.683Z,74191
2016-11-16T01:06:30.396Z,74189
2016-11-16T01:06:39.102Z,74189
2016-11-16T01:06:47.823Z,74189
2016-11-16T01:06:56.538Z,74189
2016-11-16T01:07:05.264Z,74190
2016-11-16T01:07:13.974Z,74191
2016-11-16T01:07:22.667Z,74190
2016-11-16T01:07:31.391Z,74191
2016-11-16T01:07:40.113Z,74193
2016-11-16T01:07:48.818Z,74191
2016-11-16T01:07:57.539Z,74189
2016-11-16T01:08:06.263Z,74191
2016-11-16T01:08:14.989Z,74194
2016-11-16T01:08:23.679Z,74192
2016-11-16T01:08:32.357Z,74193
2016-11-16T01:08:41.089Z,74192
2016-11-16T01:08:49.837Z,74190
2016-11-16T01:08:58.541Z,74191
2016-11-16T01:09:07.289Z,74188
2016-11-16T01:09:16.018Z,74190
2016-11-16T01:09:24.772Z,74194
2016-11-16T01:09:33.497Z,74192
2016-11-16T01:09:42.160Z,74195
2016-11-16T01:09:50.881Z,74194
2016-11-16T01:09:59.624Z,74193
2016-11-16T01:10:08.342Z,74193
2016-11-16T01:10:17.043Z,74194
2016-11-16T01:10:25.742Z,74193
2016-11-16T01:10:34.401Z,74193
2016-11-16T01:10:43.120Z,74195
2016-11-16T01:10:51.797Z,74189
2016-11-16T01:11:00.507Z,74191
2016-11-16T01:11:09.284Z,74188
2016-11-16T01:11:17.977Z,74188
2016-11-16T01:11:26.684Z,74188
2016-11-16T01:11:35.398Z,74188
2016-11-16T01:11:44.064Z,74188
2016-11-16T01:11:52.784Z,74188
2016-11-16T01:12:01.476Z,74191
2016-11-16T01:12:10.151Z,74190
2016-11-16T01:12:18.869Z,74191
2016-11-16T01:12:27.599Z,74189
2016-11-16T01:12:36.307Z,74189
2016-11-16T01:12:45.035Z,74191
2016-11-16T01:12:53.750Z,74192
2016-11-16T01:13:02.435Z,74190
2016-11-16T01:13:11.155Z,74191
2016-11-16T01:13:19.946Z,74194
2016-11-16T01:13:28.643Z,74195
2016-11-16T01:13:37.392Z,74194
2016-11-16T01:13:46.104Z,74192
2016-11-16T01:13:54.804Z,74193
2016-11-16T01:14:03.506Z,74193
2016-11-16T01:14:12.233Z,74191
2016-11-16T01:14:20.952Z,74194
2016-11-16T01:14:29.659Z,74192
2016-11-16T01:14:38.366Z,74191
2016-11-16T01:14:47.086Z,74192
2016-11-16T01:14:55.787Z,74192
2016-11-16T01:15:04.499Z,74193
2016-11-16T01:15:13.204Z,74196
2016-11-16T01:15:21.929Z,74193
2016-11-16T01:15:30.622Z,74195
2016-11-16T01:15:39.366Z,74191
2016-11-16T01:15:48.075Z,74191
2016-11-16T01:15:56.811Z,74192
2016-11-16T01:16:05.480Z,74193
2016-11-16T01:16:14.199Z,74191
2016-11-16T01:16:22.892Z,74193
2016-11-16T01:16:31.569Z,74195
2016-11-16T01:16:40.311Z,74194
2016-11-16T01:16:49.069Z,74192
2016-11-16T01:16:57.778Z,74192
2016-11-16T01:17:06.506Z,74193
2016-11-16T01:17:15.221Z,74193
2016-11-16T01:17:23.929Z,74192
2016-11-16T01:17:32.668Z,74190
2016-11-16T01:17:41.414Z,74191
2016-11-16T01:17:50.127Z,74189
2016-11-16T01:17:58.868Z,74190
2016-11-16T01:18:07.572Z,74190
2016-11-16T01:18:16.273Z,74189
2016-11-16T01:18:24.991Z,74190
2016-11-16T01:18:33.716Z,74190
2016-11-16T01:18:42.422Z,74192
2016-11-16T01:18:51.136Z,74193
2016-11-16T01:18:59.846Z,74189
2016-11-16T01:19:08.564Z,74191
2016-11-16T01:19:17.279Z,74191
2016-11-16T01:19:26.000Z,74193
2016-11-16T01:19:34.691Z,74195
2016-11-16T01:19:43.365Z,74191
2016-11-16T01:19:52.052Z,74193
2016-11-16T01:20:00.773Z,74194
2016-11-16T01:20:09.497Z,74192
2016-11-16T01:20:18.191Z,74191
2016-11-16T01:20:26.876Z,74192
2016-11-16T01:20:35.839Z,74192
2016-11-16T01:20:44.524Z,74195
2016-11-16T01:20:53.217Z,74192
2016-11-16T01:21:01.903Z,74191
2016-11-16T01:21:10.623Z,74189
2016-11-16T01:21:19.315Z,74191
2016-11-16T01:21:28.023Z,74190
2016-11-16T01:21:36.737Z,74189
2016-11-16T01:21:45.439Z,74189
2016-11-16T01:21:54.166Z,74191
2016-11-16T01:22:02.879Z,74190
2016-11-16T01:22:11.533Z,74189
2016-11-16T01:22:20.230Z,74193
2016-11-16T01:22:28.953Z,74194
2016-11-16T01:22:37.707Z,74194
2016-11-16T01:22:46.382Z,74192
2016-11-16T01:22:55.121Z,74195
2016-11-16T01:23:03.795Z,74191
2016-11-16T01:23:12.518Z,74197
2016-11-16T01:23:21.232Z,74195
2016-11-16T01:23:29.982Z,74198
2016-11-16T01:23:38.697Z,74195
2016-11-16T01:23:47.692Z,74196
2016-11-16T01:23:56.439Z,74192
2016-11-16T01:24:05.459Z,74196
2016-11-16T01:24:14.180Z,74194
2016-11-16T01:24:22.920Z,74194
2016-11-16T01:24:31.623Z,74197
2016-11-16T01:24:40.359Z,74195
2016-11-16T01:24:49.045Z,74196
2016-11-16T01:24:57.734Z,74197
2016-11-16T01:25:06.420Z,74195
2016-11-16T01:25:15.264Z,74192
2016-11-16T01:25:23.971Z,74198
2016-11-16T01:25:32.660Z,74196
2016-11-16T01:25:41.378Z,74194
2016-11-16T01:25:50.090Z,74196
2016-11-16T01:25:58.811Z,74196
2016-11-16T01:26:07.486Z,74190
2016-11-16T01:26:16.178Z,74194
2016-11-16T01:26:24.881Z,74194
2016-11-16T01:26:33.622Z,74195
2016-11-16T01:26:42.346Z,74189
2016-11-16T01:26:51.068Z,74192
2016-11-16T01:26:59.765Z,74189
2016-11-16T01:27:08.458Z,74189
2016-11-16T01:27:17.163Z,74187
2016-11-16T01:27:25.864Z,74190
2016-11-16T01:27:34.637Z,74193
2016-11-16T01:27:43.364Z,74192
2016-11-16T01:27:52.089Z,74191
2016-11-16T01:28:00.794Z,74190
2016-11-16T01:28:09.477Z,74193
2016-11-16T01:28:18.215Z,74192
2016-11-16T01:28:26.900Z,74195
2016-11-16T01:28:35.641Z,74191
2016-11-16T01:28:44.340Z,74194
2016-11-16T01:28:53.033Z,74194
2016-11-16T01:29:01.734Z,74191
2016-11-16T01:29:10.433Z,74195
2016-11-16T01:29:19.132Z,74192
2016-11-16T01:29:27.831Z,74193
2016-11-16T01:29:36.510Z,74194
2016-11-16T01:29:45.229Z,74195
2016-11-16T01:29:53.962Z,74193
2016-11-16T01:30:02.709Z,74195
2016-11-16T01:30:11.392Z,74195
2016-11-16T01:30:20.360Z,74193
2016-11-16T01:30:29.061Z,74195
2016-11-16T01:30:37.775Z,74193
2016-11-16T01:30:46.459Z,74194
2016-11-16T01:30:55.170Z,74190
2016-11-16T01:31:04.184Z,74194
2016-11-16T01:31:12.886Z,74192
2016-11-16T01:31:21.629Z,74193
2016-11-16T01:31:30.292Z,74189
2016-11-16T01:31:39.292Z,74188
2016-11-16T01:31:48.319Z,74188
2016-11-16T01:31:57.066Z,74191
2016-11-16T01:32:05.796Z,74191
2016-11-16T01:32:14.559Z,74191
2016-11-16T01:32:23.268Z,74188
2016-11-16T01:32:31.966Z,74190
2016-11-16T01:32:40.701Z,74190
2016-11-16T01:32:49.440Z,74192
2016-11-16T01:32:58.150Z,74193
2016-11-16T01:33:06.869Z,74191
2016-11-16T01:33:15.564Z,74189
2016-11-16T01:33:24.325Z,74190
2016-11-16T01:33:33.019Z,74190
2016-11-16T01:33:41.723Z,74189
2016-11-16T01:33:50.443Z,74189
2016-11-16T01:33:59.160Z,74189
2016-11-16T01:34:07.862Z,74185
2016-11-16T01:34:16.561Z,74188
2016-11-16T01:34:25.310Z,74188
2016-11-16T01:34:34.041Z,74186
2016-11-16T01:34:42.781Z,74193
2016-11-16T01:34:51.502Z,74190
2016-11-16T01:35:00.246Z,74189
2016-11-16T01:35:08.961Z,74192
2016-11-16T01:35:17.663Z,74191
2016-11-16T01:35:26.397Z,74194
2016-11-16T01:35:35.094Z,74193
2016-11-16T01:35:43.840Z,74192
2016-11-16T01:35:52.583Z,74191
2016-11-16T01:36:01.304Z,74193
2016-11-16T01:36:10.056Z,74190
2016-11-16T01:36:18.757Z,74194
2016-11-16T01:36:27.480Z,74189
2016-11-16T01:36:36.179Z,74188
2016-11-16T01:36:44.896Z,74190
2016-11-16T01:36:53.619Z,74190
2016-11-16T01:37:02.346Z,74189
2016-11-16T01:37:11.045Z,74188
2016-11-16T01:37:19.735Z,74187
2016-11-16T01:37:28.463Z,74188
2016-11-16T01:37:37.132Z,74188
2016-11-16T01:37:45.835Z,74191
2016-11-16T01:37:54.532Z,74188
2016-11-16T01:38:03.252Z,74191
2016-11-16T01:38:11.935Z,74188
2016-11-16T01:38:20.629Z,74186
2016-11-16T01:38:29.390Z,74189
2016-11-16T01:38:38.145Z,74183
2016-11-16T01:38:46.852Z,74187
2016-11-16T01:38:55.571Z,74188
2016-11-16T01:39:04.283Z,74189
2016-11-16T01:39:12.987Z,74187
2016-11-16T01:39:21.708Z,74187
2016-11-16T01:39:30.455Z,74190
2016-11-16T01:39:39.167Z,74188
2016-11-16T01:39:47.877Z,74188
2016-11-16T01:39:56.595Z,74185
2016-11-16T01:40:05.292Z,74185
2016-11-16T01:40:13.988Z,74182
2016-11-16T01:40:22.623Z,74184
2016-11-16T01:40:31.335Z,74185
2016-11-16T01:40:39.996Z,74183
2016-11-16T01:40:48.707Z,74181
2016-11-16T01:40:57.395Z,74184
2016-11-16T01:41:06.092Z,74185
2016-11-16T01:41:14.766Z,74185
2016-11-16T01:41:23.516Z,74185
2016-11-16T01:41:32.235Z,74186
2016-11-16T01:41:40.976Z,74189
2016-11-16T01:41:49.693Z,74187
2016-11-16T01:41:58.453Z,74188
2016-11-16T01:42:07.141Z,74189
2016-11-16T01:42:16.164Z,74185
2016-11-16T01:42:24.835Z,74188
2016-11-16T01:42:33.532Z,74188
2016-11-16T01:42:42.281Z,74185
2016-11-16T01:42:50.975Z,74189
2016-11-16T01:42:59.657Z,74184
2016-11-16T01:43:08.356Z,74185
2016-11-16T01:43:17.044Z,74189
2016-11-16T01:43:25.770Z,74184
2016-11-16T01:43:34.496Z,74183
2016-11-16T01:43:43.217Z,74186
2016-11-16T01:43:51.937Z,74184
2016-11-16T01:44:00.641Z,74187
2016-11-16T01:44:09.350Z,74187
2016-11-16T01:44:18.071Z,74185
2016-11-16T01:44:26.813Z,74188
2016-11-16T01:44:35.513Z,74184
2016-11-16T01:44:44.229Z,74184
2016-11-16T01:44:52.992Z,74188
2016-11-16T01:45:01.715Z,74191
2016-11-16T01:45:10.718Z,74187
2016-11-16T01:45:19.412Z,74188
2016-11-16T01:45:28.117Z,74185
2016-11-16T01:45:36.807Z,74188
2016-11-16T01:45:45.528Z,74187
2016-11-16T01:45:54.227Z,74186
2016-11-16T01:46:02.958Z,74184
2016-11-16T01:46:11.664Z,74187
2016-11-16T01:46:20.395Z,74185
2016-11-16T01:46:29.098Z,74186
2016-11-16T01:46:37.763Z,74188
2016-11-16T01:46:46.472Z,74187
2016-11-16T01:46:55.184Z,74188
2016-11-16T01:47:03.913Z,74185
2016-11-16T01:47:12.635Z,74186
2016-11-16T01:47:21.366Z,74186
2016-11-16T01:47:30.086Z,74186
2016-11-16T01:47:38.811Z,74186
2016-11-16T01:47:47.550Z,74188
2016-11-16T01:47:56.288Z,74188
2016-11-16T01:48:04.973Z,74191
2016-11-16T01:48:13.699Z,74188
2016-11-16T01:48:22.429Z,74187
2016-11-16T01:48:31.169Z,74187
2016-11-16T01:48:40.148Z,74189
2016-11-16T01:48:48.846Z,74186
2016-11-16T01:48:57.537Z,74185
2016-11-16T01:49:06.238Z,74183
2016-11-16T01:49:14.933Z,74186
2016-11-16T01:49:23.607Z,74186
2016-11-16T01:49:32.295Z,74186
2016-11-16T01:49:40.991Z,74185
2016-11-16T01:49:49.732Z,74184
2016-11-16T01:49:58.416Z,74182
2016-11-16T01:50:07.140Z,74181
2016-11-16T01:50:15.880Z,74183
2016-11-16T01:50:24.608Z,74183
2016-11-16T01:50:33.322Z,74186
2016-11-16T01:50:42.045Z,74183
2016-11-16T01:50:50.767Z,74183
2016-11-16T01:50:59.468Z,74185
2016-11-16T01:51:08.154Z,74181
2016-11-16T01:51:16.870Z,74183
2016-11-16T01:51:25.591Z,74185
2016-11-16T01:51:34.320Z,74183
2016-11-16T01:51:42.979Z,74184
2016-11-16T01:51:51.681Z,74184
2016-11-16T01:52:00.424Z,74182
2016-11-16T01:52:09.165Z,74181
2016-11-16T01:52:17.870Z,74185